createdAt,value
2019-04-22T00:00:42.439Z,53.04
2019-04-22T00:01:40.459Z,52.63
2019-04-22T00:02:47.097Z,52.53
2019-04-22T00:03:49.749Z,52.73
2019-04-22T00:04:55.059Z,53.04
2019-04-22T00:06:00.909Z,52.63
2019-04-22T00:07:03.205Z,54.05
2019-04-22T00:09:02.243Z,53.67
2019-04-22T00:10:04.888Z,53.96
2019-04-22T00:11:16.170Z,52.96
2019-04-22T00:12:07.031Z,52.94
2019-04-22T00:13:06.490Z,53.17
2019-04-22T00:14:00.977Z,54.18
2019-04-22T00:15:02.247Z,54.39
2019-04-22T00:15:59.280Z,52.76
2019-04-22T00:17:07.047Z,54.39
2019-04-22T00:18:07.395Z,54.08
2019-04-22T00:19:15.446Z,52.96
2019-04-22T00:21:04.425Z,52.96
2019-04-22T00:22:08.093Z,52.76
2019-04-22T00:23:03.806Z,54.08
2019-04-22T00:24:05.912Z,55.00
2019-04-22T00:25:10.509Z,55.73
2019-04-22T00:26:08.764Z,55.53
2019-04-22T00:27:03.909Z,55.63
2019-04-22T00:28:08.520Z,54.31
2019-04-22T00:29:20.833Z,55.43
2019-04-22T00:30:13.550Z,54.41
2019-04-22T00:31:06.690Z,54.41
2019-04-22T00:32:05.606Z,55.43
2019-04-22T00:32:55.517Z,56.34
2019-04-22T00:34:06.725Z,56.27
2019-04-22T00:35:03.934Z,55.86
2019-04-22T00:36:04.475Z,55.96
2019-04-22T00:37:00.709Z,55.96
2019-04-22T00:38:17.678Z,55.86
2019-04-22T00:39:07.397Z,55.96
2019-04-22T00:40:07.150Z,56.81
2019-04-22T00:41:05.798Z,56.81
2019-04-22T00:41:57.046Z,56.20
2019-04-22T00:43:07.073Z,55.68
2019-04-22T00:44:15.387Z,56.50
2019-04-22T00:45:06.313Z,57.01
2019-04-22T00:46:03.999Z,56.90
2019-04-22T00:47:07.725Z,57.52
2019-04-22T00:48:14.410Z,57.21
2019-04-22T00:49:52.745Z,57.01
2019-04-22T00:51:14.361Z,57.42
2019-04-22T00:52:20.617Z,56.81
2019-04-22T00:53:08.843Z,56.50
2019-04-22T00:54:06.011Z,57.44
2019-04-22T00:54:59.428Z,57.24
2019-04-22T00:56:08.886Z,57.34
2019-04-22T00:57:01.229Z,56.83
2019-04-22T00:58:08.013Z,56.93
2019-04-22T00:59:01.609Z,58.56
2019-04-22T01:00:07.241Z,56.83
2019-04-22T01:01:09.847Z,57.44
2019-04-22T01:02:10.224Z,58.59
2019-04-22T01:03:18.016Z,58.08
2019-04-22T01:05:07.681Z,57.26
2019-04-22T01:06:06.421Z,58.28
2019-04-22T01:07:09.280Z,57.78
2019-04-22T01:08:07.099Z,57.47
2019-04-22T01:09:07.734Z,58.36
2019-04-22T01:10:07.236Z,58.39
2019-04-22T01:11:13.465Z,58.69
2019-04-22T01:12:08.636Z,58.39
2019-04-22T01:13:04.889Z,58.08
2019-04-22T01:14:02.630Z,58.39
2019-04-22T01:15:10.612Z,59.61
2019-04-22T01:16:09.131Z,59.20
2019-04-22T01:17:21.187Z,59.53
2019-04-22T01:18:02.244Z,58.82
2019-04-22T01:19:05.272Z,59.20
2019-04-22T01:20:04.468Z,59.03
2019-04-22T01:21:21.504Z,59.12
2019-04-22T01:22:09.874Z,59.84
2019-04-22T01:23:03.812Z,59.53
2019-04-22T01:25:02.437Z,61.57
2019-04-22T01:25:59.639Z,59.56
2019-04-22T01:26:58.179Z,59.16
2019-04-22T01:27:57.210Z,60.58
2019-04-22T01:28:53.579Z,60.61
2019-04-22T01:29:52.633Z,61.12
2019-04-22T01:30:51.014Z,61.19
2019-04-22T01:31:43.429Z,61.83
2019-04-22T01:32:43.976Z,61.53
2019-04-22T01:33:46.520Z,61.53
2019-04-22T01:34:52.713Z,61.63
2019-04-22T01:36:04.648Z,60.71
2019-04-22T01:37:01.495Z,60.82
2019-04-22T01:37:54.686Z,61.94
2019-04-22T01:39:03.840Z,61.43
2019-04-22T01:40:04.655Z,61.32
2019-04-22T01:41:07.191Z,61.32
2019-04-22T01:42:06.203Z,61.73
2019-04-22T01:43:07.344Z,61.12
2019-04-22T01:44:15.842Z,62.14
2019-04-22T01:45:06.942Z,61.73
2019-04-22T01:46:07.902Z,61.76
2019-04-22T01:47:04.899Z,60.92
2019-04-22T01:48:02.644Z,61.22
2019-04-22T01:49:08.425Z,61.43
2019-04-22T01:50:10.084Z,61.22
2019-04-22T01:51:00.996Z,62.04
2019-04-22T01:52:12.872Z,61.94
2019-04-22T01:53:06.007Z,61.22
2019-04-22T01:55:10.672Z,61.35
2019-04-22T01:56:06.037Z,61.73
2019-04-22T01:57:04.896Z,61.66
2019-04-22T01:57:59.858Z,61.66
2019-04-22T01:58:58.961Z,61.66
2019-04-22T01:59:59.040Z,61.56
2019-04-22T02:01:10.480Z,61.87
2019-04-22T02:02:02.628Z,61.97
2019-04-22T02:03:04.226Z,62.48
2019-04-22T02:04:07.146Z,62.07
2019-04-22T02:05:04.606Z,62.07
2019-04-22T02:06:06.943Z,60.94
2019-04-22T02:08:06.809Z,60.33
2019-04-22T02:09:13.377Z,60.33
2019-04-22T02:10:06.800Z,60.85
2019-04-22T02:11:07.931Z,61.76
2019-04-22T02:12:08.010Z,60.44
2019-04-22T02:13:06.687Z,61.56
2019-04-22T02:14:07.755Z,62.37
2019-04-22T02:15:10.455Z,61.35
2019-04-22T02:16:08.875Z,60.94
2019-04-22T02:17:14.740Z,60.94
2019-04-22T02:18:11.496Z,60.85
2019-04-22T02:19:11.941Z,60.74
2019-04-22T02:20:13.549Z,59.62
2019-04-22T02:21:03.194Z,59.82
2019-04-22T02:22:00.677Z,60.85
2019-04-22T02:23:36.971Z,60.94
2019-04-22T02:24:02.693Z,61.25
2019-04-22T02:25:08.410Z,60.44
2019-04-22T02:26:10.601Z,59.82
2019-04-22T02:27:10.713Z,59.62
2019-04-22T02:28:07.834Z,59.92
2019-04-22T02:29:11.039Z,59.92
2019-04-22T02:30:06.146Z,59.49
2019-04-22T02:33:25.466Z,58.87
2019-04-22T02:37:13.581Z,58.87
2019-04-22T02:38:20.845Z,58.47
2019-04-22T02:40:09.647Z,58.57
2019-04-22T02:42:13.143Z,58.57
2019-04-22T02:43:14.573Z,58.75
2019-04-22T02:45:26.569Z,58.78
2019-04-22T02:47:20.663Z,58.47
2019-04-22T02:49:23.096Z,59.49
2019-04-22T02:50:05.217Z,59.36
2019-04-22T02:52:09.433Z,59.66
2019-04-22T02:53:24.802Z,59.69
2019-04-22T02:54:29.947Z,59.87
2019-04-22T02:55:10.318Z,59.28
2019-04-22T02:56:25.637Z,59.80
2019-04-22T02:57:16.653Z,59.80
2019-04-22T02:58:04.796Z,59.18
2019-04-22T02:59:12.380Z,59.69
2019-04-22T03:00:12.255Z,59.59
2019-04-22T03:01:16.291Z,59.18
2019-04-22T03:02:14.580Z,59.80
2019-04-22T03:04:09.413Z,61.22
2019-04-22T03:05:08.841Z,61.32
2019-04-22T03:06:24.364Z,61.63
2019-04-22T03:07:03.330Z,61.12
2019-04-22T03:08:18.846Z,61.35
2019-04-22T03:10:09.397Z,61.35
2019-04-22T03:11:15.271Z,62.07
2019-04-22T03:12:21.946Z,61.56
2019-04-22T03:13:21.387Z,62.92
2019-04-22T03:14:08.879Z,62.30
2019-04-22T03:15:07.544Z,62.20
2019-04-22T03:16:17.738Z,61.99
2019-04-22T03:17:08.675Z,62.51
2019-04-22T03:18:12.693Z,62.30
2019-04-22T03:19:14.376Z,62.95
2019-04-22T03:20:09.379Z,62.54
2019-04-22T03:22:12.688Z,62.74
2019-04-22T03:24:20.542Z,63.56
2019-04-22T03:25:42.800Z,63.56
2019-04-22T03:27:07.531Z,63.59
2019-04-22T03:28:06.380Z,63.39
2019-04-22T03:29:04.155Z,64.17
2019-04-22T03:32:39.404Z,64.00
2019-04-22T03:34:54.708Z,64.33
2019-04-22T03:35:33.969Z,64.43
2019-04-22T03:36:21.290Z,64.40
2019-04-22T03:38:28.924Z,64.13
2019-04-22T03:40:16.115Z,65.87
2019-04-22T03:41:20.141Z,66.28
2019-04-22T03:43:14.173Z,65.56
2019-04-22T03:45:22.402Z,66.00
2019-04-22T03:46:05.753Z,65.80
2019-04-22T03:49:23.114Z,66.34
2019-04-22T03:50:17.372Z,65.72
2019-04-22T03:51:16.141Z,66.64
2019-04-22T03:53:14.909Z,66.51
2019-04-22T03:54:25.909Z,66.92
2019-04-22T03:56:32.645Z,66.95
2019-04-22T03:57:57.335Z,66.75
2019-04-22T03:59:25.029Z,66.64
2019-04-22T04:01:18.424Z,66.31
2019-04-22T04:02:21.577Z,65.90
2019-04-22T04:03:09.514Z,66.03
2019-04-22T04:04:18.503Z,66.03
2019-04-22T04:05:09.918Z,66.41
2019-04-22T04:06:13.825Z,66.00
2019-04-22T04:07:25.770Z,66.54
2019-04-22T04:08:14.693Z,66.24
2019-04-22T04:09:18.107Z,66.34
2019-04-22T04:10:19.521Z,67.16
2019-04-22T04:11:20.526Z,66.61
2019-04-22T04:13:15.835Z,65.90
2019-04-22T04:14:21.839Z,65.52
2019-04-22T04:16:12.977Z,67.36
2019-04-22T04:18:06.731Z,66.13
2019-04-22T04:21:22.805Z,66.13
2019-04-22T04:23:31.208Z,66.64
2019-04-22T04:25:27.352Z,66.13
2019-04-22T04:26:35.192Z,66.24
2019-04-22T04:29:26.009Z,66.34
2019-04-22T04:31:17.646Z,66.95
2019-04-22T04:33:24.953Z,66.64
2019-04-22T04:34:17.106Z,66.24
2019-04-22T04:38:24.019Z,67.08
2019-04-22T04:39:10.903Z,68.01
2019-04-22T04:41:23.156Z,68.21
2019-04-22T04:42:36.316Z,68.52
2019-04-22T04:43:07.763Z,68.52
2019-04-22T04:44:34.239Z,68.52
2019-04-22T04:46:13.753Z,69.47
2019-04-22T04:47:19.880Z,69.13
2019-04-22T04:49:24.545Z,68.76
2019-04-22T04:50:12.005Z,68.86
2019-04-22T04:51:15.998Z,68.14
2019-04-22T04:52:16.998Z,68.35
2019-04-22T04:56:11.097Z,68.76
2019-04-22T04:57:05.161Z,69.17
2019-04-22T04:58:25.667Z,69.68
2019-04-22T05:01:10.882Z,69.89
2019-04-22T05:02:17.507Z,68.14
2019-04-22T05:03:13.121Z,68.24
2019-04-22T05:04:14.335Z,68.96
2019-04-22T05:05:13.004Z,69.47
2019-04-22T05:06:12.983Z,69.06
2019-04-22T05:07:26.118Z,68.32
2019-04-22T05:08:00.456Z,69.44
2019-04-22T05:09:22.664Z,68.41
2019-04-22T05:10:39.310Z,67.90
2019-04-22T05:12:39.594Z,67.19
2019-04-22T05:13:23.348Z,67.40
2019-04-22T05:14:09.287Z,67.26
2019-04-22T05:15:17.646Z,67.16
2019-04-22T05:16:30.083Z,67.16
2019-04-22T05:18:14.793Z,65.69
2019-04-22T05:19:08.074Z,65.18
2019-04-22T05:20:12.936Z,64.06
2019-04-22T05:21:17.963Z,63.62
2019-04-22T05:22:07.865Z,62.80
2019-04-22T05:23:14.229Z,63.59
2019-04-22T05:24:13.459Z,63.48
2019-04-22T05:25:05.989Z,63.59
2019-04-22T05:26:04.318Z,63.48
2019-04-22T05:27:13.390Z,63.66
2019-04-22T05:28:02.572Z,63.56
2019-04-22T05:29:05.566Z,63.25
2019-04-22T05:30:21.495Z,62.54
2019-04-22T05:31:01.664Z,62.02
2019-04-22T05:32:03.151Z,62.51
2019-04-22T05:33:01.432Z,62.20
2019-04-22T05:34:04.405Z,62.40
2019-04-22T05:35:21.374Z,61.66
2019-04-22T05:36:01.515Z,61.25
2019-04-22T05:37:01.221Z,62.17
2019-04-22T05:38:11.799Z,60.85
2019-04-22T05:40:10.554Z,60.64
2019-04-22T05:41:02.779Z,59.89
2019-04-22T05:42:03.405Z,60.92
2019-04-22T05:43:00.183Z,59.28
2019-04-22T05:44:03.235Z,59.49
2019-04-22T05:45:03.032Z,59.69
2019-04-22T05:46:02.869Z,59.05
2019-04-22T05:47:02.944Z,59.77
2019-04-22T05:48:01.330Z,59.87
2019-04-22T05:49:09.950Z,59.16
2019-04-22T05:50:02.247Z,59.26
2019-04-22T05:51:03.732Z,59.12
2019-04-22T05:52:04.982Z,59.23
2019-04-22T05:53:16.122Z,59.64
2019-04-22T05:54:01.414Z,58.92
2019-04-22T05:55:05.370Z,59.12
2019-04-22T05:56:05.331Z,58.49
2019-04-22T05:57:06.617Z,59.41
2019-04-22T05:58:05.247Z,59.38
2019-04-22T05:59:03.797Z,58.46
2019-04-22T06:00:06.355Z,57.54
2019-04-22T06:02:05.091Z,57.85
2019-04-22T06:04:07.305Z,57.24
2019-04-22T06:05:06.644Z,56.81
2019-04-22T06:06:07.779Z,57.01
2019-04-22T06:07:00.458Z,57.11
2019-04-22T06:08:00.177Z,57.01
2019-04-22T06:09:10.579Z,55.68
2019-04-22T06:10:08.234Z,56.16
2019-04-22T06:11:04.398Z,55.55
2019-04-22T06:11:58.918Z,56.16
2019-04-22T06:12:58.207Z,57.29
2019-04-22T06:13:55.998Z,56.95
2019-04-22T06:15:00.063Z,58.00
2019-04-22T06:15:59.057Z,56.95
2019-04-22T06:17:03.617Z,55.60
2019-04-22T06:18:09.446Z,55.22
2019-04-22T06:19:03.185Z,55.30
2019-04-22T06:20:02.748Z,56.12
2019-04-22T06:21:08.988Z,55.88
2019-04-22T06:22:04.230Z,54.77
2019-04-22T06:23:04.119Z,55.15
2019-04-22T06:24:04.610Z,55.18
2019-04-22T06:25:01.170Z,54.54
2019-04-22T06:26:16.151Z,54.03
2019-04-22T06:28:05.365Z,54.41
2019-04-22T06:29:01.614Z,52.99
2019-04-22T06:30:04.202Z,52.51
2019-04-22T06:31:02.604Z,52.69
2019-04-22T06:33:03.591Z,52.46
2019-04-22T06:34:06.011Z,52.56
2019-04-22T06:35:11.036Z,52.56
2019-04-22T06:36:01.964Z,52.76
2019-04-22T06:37:07.360Z,52.94
2019-04-22T06:38:59.020Z,51.32
2019-04-22T06:39:58.788Z,51.01
2019-04-22T06:42:00.778Z,50.18
2019-04-22T06:43:03.383Z,50.56
2019-04-22T06:44:04.841Z,51.09
2019-04-22T06:45:04.215Z,49.95
2019-04-22T06:46:06.344Z,51.17
2019-04-22T06:47:02.734Z,50.35
2019-04-22T06:48:19.145Z,50.74
2019-04-22T06:49:03.032Z,50.63
2019-04-22T06:49:59.230Z,50.84
2019-04-22T06:51:04.645Z,51.25
2019-04-22T06:52:09.186Z,49.93
2019-04-22T06:53:06.810Z,49.80
2019-04-22T06:54:01.775Z,50.21
2019-04-22T06:55:05.977Z,50.38
2019-04-22T06:55:59.743Z,50.89
2019-04-22T06:56:59.728Z,50.29
2019-04-22T06:57:59.910Z,50.37
2019-04-22T06:58:59.433Z,50.46
2019-04-22T07:00:05.237Z,49.15
2019-04-22T07:01:04.294Z,49.93
2019-04-22T07:02:02.323Z,49.84
2019-04-22T07:03:58.557Z,48.22
2019-04-22T07:05:02.925Z,49.21
2019-04-22T07:05:52.041Z,48.10
2019-04-22T07:07:05.378Z,48.30
2019-04-22T07:08:04.415Z,47.69
2019-04-22T07:10:06.398Z,49.69
2019-04-22T07:10:56.266Z,47.95
2019-04-22T07:11:58.806Z,48.07
2019-04-22T07:13:01.451Z,48.55
2019-04-22T07:14:01.774Z,47.64
2019-04-22T07:15:02.961Z,46.53
2019-04-22T07:16:00.402Z,48.43
2019-04-22T07:17:03.755Z,47.52
2019-04-22T07:18:04.807Z,45.70
2019-04-22T07:19:01.915Z,45.90
2019-04-22T07:20:01.958Z,45.98
2019-04-22T07:21:02.851Z,46.49
2019-04-22T07:22:09.706Z,44.78
2019-04-22T07:23:06.712Z,45.76
2019-04-22T07:24:27.813Z,46.57
2019-04-22T07:24:59.022Z,45.64
2019-04-22T07:26:00.270Z,43.12
2019-04-22T07:27:08.913Z,44.23
2019-04-22T07:27:58.553Z,44.21
2019-04-22T07:29:01.538Z,44.01
2019-04-22T07:30:17.277Z,43.40
2019-04-22T07:32:00.557Z,42.27
2019-04-22T07:34:08.241Z,42.58
2019-04-22T07:34:59.225Z,43.76
2019-04-22T07:36:23.439Z,43.46
2019-04-22T07:37:13.412Z,43.44
2019-04-22T07:38:07.561Z,41.63
2019-04-22T07:39:01.931Z,41.43
2019-04-22T07:39:56.258Z,40.42
2019-04-22T07:40:55.449Z,40.41
2019-04-22T07:41:55.944Z,41.91
2019-04-22T07:43:04.266Z,38.78
2019-04-22T07:46:00.073Z,37.27
2019-04-22T07:47:10.077Z,36.36
2019-04-22T07:48:15.219Z,37.87
2019-04-22T07:49:02.101Z,36.85
2019-04-22T07:50:25.470Z,37.76
2019-04-22T07:51:02.546Z,36.55
2019-04-22T07:51:55.746Z,36.33
2019-04-22T07:52:56.899Z,36.33
2019-04-22T07:54:01.860Z,35.53
2019-04-22T07:55:00.969Z,36.13
2019-04-22T07:56:00.159Z,35.71
2019-04-22T07:57:11.652Z,36.52
2019-04-22T07:58:01.871Z,36.61
2019-04-22T07:59:07.082Z,37.20
2019-04-22T08:00:03.680Z,35.50
2019-04-22T08:01:02.029Z,37.10
2019-04-22T08:01:56.285Z,37.18
2019-04-22T08:03:06.638Z,36.20
2019-04-22T08:04:13.163Z,36.18
2019-04-22T08:05:05.447Z,35.78
2019-04-22T08:06:04.963Z,36.46
2019-04-22T08:07:05.126Z,36.57
2019-04-22T08:08:08.467Z,35.26
2019-04-22T08:09:01.772Z,36.55
2019-04-22T08:10:09.285Z,34.14
2019-04-22T08:11:18.921Z,34.94
2019-04-22T08:11:59.507Z,35.44
2019-04-22T08:13:01.910Z,33.73
2019-04-22T08:13:58.816Z,34.93
2019-04-22T08:15:00.109Z,35.23
2019-04-22T08:17:14.172Z,34.23
2019-04-22T08:19:03.072Z,33.91
2019-04-22T08:20:02.603Z,33.91
2019-04-22T08:20:58.680Z,32.31
2019-04-22T08:22:05.952Z,32.81
2019-04-22T08:23:04.872Z,34.01
2019-04-22T08:24:01.514Z,33.29
2019-04-22T08:25:01.255Z,33.29
2019-04-22T08:26:13.038Z,33.80
2019-04-22T08:27:00.650Z,33.89
2019-04-22T08:28:05.655Z,33.29
2019-04-22T08:30:06.568Z,33.50
2019-04-22T08:31:02.051Z,33.38
2019-04-22T08:32:01.217Z,31.78
2019-04-22T08:33:05.129Z,33.08
2019-04-22T08:34:01.743Z,31.48
2019-04-22T08:34:55.627Z,31.88
2019-04-22T08:37:37.068Z,31.96
2019-04-22T08:38:02.489Z,31.76
2019-04-22T08:39:04.170Z,32.46
2019-04-22T08:40:07.781Z,31.26
2019-04-22T08:41:06.531Z,31.96
2019-04-22T08:41:57.223Z,32.25
2019-04-22T08:43:07.477Z,31.75
2019-04-22T08:44:27.872Z,33.23
2019-04-22T08:45:57.020Z,32.03
2019-04-22T08:47:07.112Z,31.63
2019-04-22T08:47:55.287Z,31.04
2019-04-22T08:49:03.974Z,31.04
2019-04-22T08:50:06.001Z,30.52
2019-04-22T08:51:00.977Z,30.82
2019-04-22T08:52:01.283Z,31.42
2019-04-22T08:53:06.190Z,30.22
2019-04-22T08:55:04.761Z,29.71
2019-04-22T08:56:08.247Z,30.31
2019-04-22T08:57:03.406Z,32.20
2019-04-22T08:58:16.589Z,32.80
2019-04-22T08:59:10.876Z,30.41
2019-04-22T09:00:02.856Z,31.59
2019-04-22T09:01:04.566Z,28.80
2019-04-22T09:02:04.152Z,28.70
2019-04-22T09:03:02.127Z,31.79
2019-04-22T09:05:10.544Z,29.58
2019-04-22T09:06:06.459Z,30.18
2019-04-22T09:07:20.694Z,30.38
2019-04-22T09:07:59.801Z,29.88
2019-04-22T09:09:00.938Z,27.48
2019-04-22T09:10:58.606Z,29.07
2019-04-22T09:11:59.901Z,28.87
2019-04-22T09:13:03.617Z,27.58
2019-04-22T09:14:06.851Z,28.06
2019-04-22T09:15:20.585Z,28.26
2019-04-22T09:16:02.283Z,27.56
2019-04-22T09:17:17.994Z,27.86
2019-04-22T09:18:06.671Z,28.25
2019-04-22T09:18:59.763Z,28.64
2019-04-22T09:19:59.990Z,26.56
2019-04-22T09:21:07.048Z,27.45
2019-04-22T09:22:00.008Z,28.85
2019-04-22T09:23:04.453Z,29.34
2019-04-22T09:24:05.292Z,30.24
2019-04-22T09:24:57.457Z,28.83
2019-04-22T09:25:53.218Z,28.83
2019-04-22T09:27:04.033Z,28.72
2019-04-22T09:27:56.002Z,28.03
2019-04-22T09:30:01.623Z,28.03
2019-04-22T09:31:01.311Z,26.44
2019-04-22T09:32:05.637Z,27.33
2019-04-22T09:33:01.553Z,25.34
2019-04-22T09:33:53.428Z,26.82
2019-04-22T09:34:58.899Z,26.82
2019-04-22T09:36:00.061Z,25.93
2019-04-22T09:37:07.920Z,26.93
2019-04-22T09:38:10.593Z,27.51
2019-04-22T09:39:12.152Z,26.52
2019-04-22T09:40:07.273Z,27.41
2019-04-22T09:40:59.908Z,27.91
2019-04-22T09:41:59.228Z,26.12
2019-04-22T09:43:00.649Z,25.82
2019-04-22T09:43:57.069Z,26.90
2019-04-22T09:45:01.564Z,24.62
2019-04-22T09:45:57.500Z,27.20
2019-04-22T09:47:05.100Z,27.10
2019-04-22T09:48:03.085Z,27.20
2019-04-22T09:50:03.766Z,26.10
2019-04-22T09:51:03.667Z,26.10
2019-04-22T09:51:58.620Z,26.29
2019-04-22T09:53:03.556Z,27.48
2019-04-22T09:54:12.392Z,24.11
2019-04-22T09:55:10.945Z,26.39
2019-04-22T09:55:57.175Z,24.90
2019-04-22T09:56:55.088Z,25.70
2019-04-22T09:57:55.655Z,26.20
2019-04-22T09:58:55.687Z,26.39
2019-04-22T10:00:02.877Z,25.49
2019-04-22T10:01:03.046Z,24.89
2019-04-22T10:02:14.623Z,24.00
2019-04-22T10:03:00.489Z,23.60
2019-04-22T10:04:05.396Z,24.60
2019-04-22T10:05:00.100Z,25.29
2019-04-22T10:06:11.230Z,26.48
2019-04-22T10:06:54.440Z,25.29
2019-04-22T10:07:59.394Z,23.60
2019-04-22T10:09:31.535Z,23.11
2019-04-22T10:10:03.688Z,23.70
2019-04-22T10:11:06.027Z,25.08
2019-04-22T10:11:58.603Z,25.67
2019-04-22T10:12:57.802Z,24.68
2019-04-22T10:13:59.782Z,25.08
2019-04-22T10:14:53.932Z,24.67
2019-04-22T10:16:02.416Z,24.77
2019-04-22T10:16:53.897Z,24.07
2019-04-22T10:17:58.035Z,23.48
2019-04-22T10:18:59.469Z,23.18
2019-04-22T10:20:02.491Z,23.96
2019-04-22T10:21:00.636Z,23.77
2019-04-22T10:22:08.522Z,23.78
2019-04-22T10:22:57.422Z,23.86
2019-04-22T10:23:59.973Z,23.38
2019-04-22T10:24:56.838Z,23.96
2019-04-22T10:25:59.121Z,23.07
2019-04-22T10:26:57.058Z,23.57
2019-04-22T10:28:06.503Z,25.35
2019-04-22T10:29:00.863Z,24.66
2019-04-22T10:30:08.879Z,24.76
2019-04-22T10:30:52.190Z,23.96
2019-04-22T10:32:52.231Z,23.66
2019-04-22T10:33:50.025Z,20.30
2019-04-22T10:34:40.878Z,21.19
2019-04-22T10:35:34.499Z,21.39
2019-04-22T10:36:33.147Z,23.26
2019-04-22T10:37:32.373Z,21.09
2019-04-22T10:38:32.608Z,21.98
2019-04-22T10:39:41.204Z,21.38
2019-04-22T10:40:34.538Z,22.96
2019-04-22T10:41:32.517Z,22.96
2019-04-22T10:42:33.606Z,20.98
2019-04-22T10:43:32.914Z,20.98
2019-04-22T10:44:33.248Z,20.49
2019-04-22T10:45:32.442Z,20.59
2019-04-22T10:46:32.168Z,21.48
2019-04-22T10:47:32.185Z,21.28
2019-04-22T10:48:32.461Z,21.67
2019-04-22T10:49:32.139Z,22.95
2019-04-22T10:50:34.777Z,22.75
2019-04-22T10:51:32.752Z,23.73
2019-04-22T10:52:32.114Z,22.15
2019-04-22T10:53:33.386Z,19.48
2019-04-22T10:54:33.510Z,20.67
2019-04-22T10:55:32.071Z,23.24
2019-04-22T10:56:32.785Z,20.17
2019-04-22T10:57:32.063Z,20.57
2019-04-22T10:58:32.880Z,18.19
2019-04-22T10:59:32.339Z,19.39
2019-04-22T11:00:33.494Z,21.27
2019-04-22T11:01:32.012Z,20.38
2019-04-22T11:02:32.036Z,19.09
2019-04-22T11:03:33.228Z,19.49
2019-04-22T11:04:32.286Z,19.09
2019-04-22T11:05:32.370Z,20.29
2019-04-22T11:06:33.683Z,20.29
2019-04-22T11:07:40.435Z,19.79
2019-04-22T11:08:42.429Z,20.49
2019-04-22T11:09:36.580Z,20.49
2019-04-22T11:10:45.561Z,21.37
2019-04-22T11:11:46.091Z,23.35
2019-04-22T11:12:35.399Z,22.56
2019-04-22T11:13:31.882Z,19.48
2019-04-22T11:14:32.820Z,18.69
2019-04-22T11:15:32.822Z,19.58
2019-04-22T11:16:31.855Z,21.26
2019-04-22T11:17:31.857Z,20.37
2019-04-22T11:18:31.816Z,22.84
2019-04-22T11:19:31.903Z,19.07
2019-04-22T11:20:31.797Z,22.04
2019-04-22T11:21:31.822Z,18.98
2019-04-22T11:22:34.977Z,19.07
2019-04-22T11:23:32.786Z,17.80
2019-04-22T11:24:32.721Z,19.87
2019-04-22T11:25:31.950Z,19.68
2019-04-22T11:26:31.906Z,18.99
2019-04-22T11:27:32.911Z,20.07
2019-04-22T11:28:31.951Z,19.28
2019-04-22T11:29:31.870Z,20.47
2019-04-22T11:30:32.353Z,19.48
2019-04-22T11:31:32.448Z,20.97
2019-04-22T11:32:32.761Z,18.60
2019-04-22T11:33:32.310Z,20.28
2019-04-22T11:34:33.265Z,19.29
2019-04-22T11:35:32.068Z,20.48
2019-04-22T11:36:32.518Z,19.98
2019-04-22T11:37:32.772Z,19.49
2019-04-22T11:38:32.890Z,18.60
2019-04-22T11:39:34.875Z,19.98
2019-04-22T11:40:38.407Z,20.57
2019-04-22T11:41:33.787Z,20.48
2019-04-22T11:42:32.294Z,19.01
2019-04-22T11:43:32.327Z,19.50
2019-04-22T11:44:32.906Z,19.40
2019-04-22T11:45:31.533Z,21.77
2019-04-22T11:46:31.626Z,18.61
2019-04-22T11:47:32.989Z,21.67
2019-04-22T11:48:31.513Z,20.48
2019-04-22T11:49:32.007Z,18.60
2019-04-22T11:50:31.476Z,21.27
2019-04-22T11:51:31.992Z,21.67
2019-04-22T11:52:32.948Z,20.28
2019-04-22T11:53:31.469Z,21.27
2019-04-22T11:54:32.554Z,19.49
2019-04-22T11:55:32.615Z,20.78
2019-04-22T11:56:31.412Z,19.58
2019-04-22T11:57:32.857Z,21.06
2019-04-22T11:58:33.008Z,21.26
2019-04-22T11:59:31.382Z,20.47
2019-04-22T12:00:32.756Z,21.36
2019-04-22T12:01:32.827Z,22.15
2019-04-22T12:02:31.349Z,20.95
2019-04-22T12:03:31.688Z,20.46
2019-04-22T12:04:32.095Z,20.56
2019-04-22T12:05:32.223Z,18.38
2019-04-22T12:06:31.815Z,19.37
2019-04-22T12:07:34.446Z,19.27
2019-04-22T12:08:31.298Z,20.26
2019-04-22T12:09:31.338Z,17.30
2019-04-22T12:10:38.836Z,18.58
2019-04-22T12:11:32.467Z,18.88
2019-04-22T12:12:32.005Z,18.08
2019-04-22T12:13:31.225Z,16.80
2019-04-22T12:14:31.885Z,16.81
2019-04-22T12:15:31.221Z,18.69
2019-04-22T12:16:31.604Z,16.91
2019-04-22T12:17:32.021Z,18.19
2019-04-22T12:18:31.336Z,18.49
2019-04-22T12:19:31.338Z,18.29
2019-04-22T12:20:31.152Z,19.09
2019-04-22T12:21:31.182Z,19.09
2019-04-22T12:22:31.297Z,18.29
2019-04-22T12:23:32.623Z,18.79
2019-04-22T12:24:32.037Z,20.36
2019-04-22T12:25:42.391Z,19.28
2019-04-22T12:26:32.554Z,16.80
2019-04-22T12:27:31.076Z,19.07
2019-04-22T12:28:31.151Z,17.19
2019-04-22T12:29:31.120Z,17.10
2019-04-22T12:30:31.054Z,18.18
2019-04-22T12:31:31.586Z,17.19
2019-04-22T12:32:31.653Z,19.57
2019-04-22T12:33:31.641Z,18.29
2019-04-22T12:34:31.154Z,18.58
2019-04-22T12:35:32.551Z,19.36
2019-04-22T12:36:30.997Z,18.08
2019-04-22T12:37:38.141Z,18.78
2019-04-22T12:38:33.193Z,19.36
2019-04-22T12:39:31.641Z,17.58
2019-04-22T12:40:40.774Z,19.56
2019-04-22T12:41:31.920Z,17.19
2019-04-22T12:42:31.263Z,16.79
2019-04-22T12:43:31.816Z,17.49
2019-04-22T12:44:30.916Z,17.09
2019-04-22T12:45:31.986Z,18.48
2019-04-22T12:46:32.180Z,17.49
2019-04-22T12:47:33.552Z,18.57
2019-04-22T12:48:31.059Z,16.50
2019-04-22T12:49:32.196Z,18.78
2019-04-22T12:50:34.934Z,19.07
2019-04-22T12:51:33.197Z,17.10
2019-04-22T12:52:39.720Z,18.87
2019-04-22T12:53:32.040Z,17.39
2019-04-22T12:54:31.183Z,18.37
2019-04-22T12:55:32.288Z,20.25
2019-04-22T12:56:30.774Z,18.18
2019-04-22T12:57:30.764Z,18.77
2019-04-22T12:58:31.677Z,18.97
2019-04-22T12:59:31.901Z,16.99
2019-04-22T13:00:31.935Z,18.87
2019-04-22T13:01:30.888Z,18.48
2019-04-22T13:02:31.295Z,19.07
2019-04-22T13:03:32.006Z,18.66
2019-04-22T13:04:32.175Z,18.17
2019-04-22T13:05:31.362Z,17.09
2019-04-22T13:06:31.956Z,18.77
2019-04-22T13:07:31.517Z,18.48
2019-04-22T13:08:31.714Z,18.27
2019-04-22T13:09:31.600Z,18.57
2019-04-22T13:10:41.706Z,18.08
2019-04-22T13:11:34.837Z,18.18
2019-04-22T13:12:31.073Z,17.09
2019-04-22T13:13:31.318Z,18.57
2019-04-22T13:14:30.776Z,18.27
2019-04-22T13:15:30.895Z,18.18
2019-04-22T13:16:31.258Z,19.07
2019-04-22T13:17:31.236Z,20.75
2019-04-22T13:18:38.190Z,19.76
2019-04-22T13:19:32.043Z,19.46
2019-04-22T13:20:30.561Z,18.37
2019-04-22T13:21:31.113Z,18.57
2019-04-22T13:22:30.637Z,19.36
2019-04-22T13:23:31.777Z,18.97
2019-04-22T13:24:31.945Z,20.06
2019-04-22T13:25:32.339Z,18.97
2019-04-22T13:26:31.950Z,19.45
2019-04-22T13:27:30.904Z,19.06
2019-04-22T13:28:31.443Z,16.50
2019-04-22T13:29:31.080Z,16.60
2019-04-22T13:30:30.597Z,16.60
2019-04-22T13:31:30.880Z,17.30
2019-04-22T13:32:31.327Z,17.19
2019-04-22T13:33:30.641Z,16.81
2019-04-22T13:34:37.666Z,17.69
2019-04-22T13:35:31.824Z,18.19
2019-04-22T13:36:31.780Z,17.50
2019-04-22T13:37:30.827Z,19.48
2019-04-22T13:38:31.142Z,16.31
2019-04-22T13:39:31.275Z,16.12
2019-04-22T13:40:30.776Z,17.00
2019-04-22T13:41:37.669Z,18.29
2019-04-22T13:42:32.103Z,18.29
2019-04-22T13:43:31.206Z,17.11
2019-04-22T13:44:31.451Z,17.59
2019-04-22T13:45:30.521Z,18.58
2019-04-22T13:46:31.747Z,18.68
2019-04-22T13:47:49.170Z,16.60
2019-04-22T13:48:53.363Z,19.07
2019-04-22T13:52:01.087Z,17.00
2019-04-22T13:54:35.111Z,16.81
2019-04-22T13:54:53.325Z,16.12
2019-04-22T13:56:07.516Z,16.91
2019-04-22T13:56:50.612Z,18.80
2019-04-22T13:57:47.542Z,18.10
2019-04-22T13:58:46.087Z,16.62
2019-04-22T13:59:40.376Z,16.22
2019-04-22T14:00:31.136Z,16.42
2019-04-22T14:01:30.388Z,16.53
2019-04-22T14:02:30.686Z,16.13
2019-04-22T14:03:30.884Z,16.83
2019-04-22T14:04:30.485Z,18.80
2019-04-22T14:05:31.032Z,18.12
2019-04-22T14:06:31.118Z,18.51
2019-04-22T14:07:30.707Z,17.61
2019-04-22T14:08:31.328Z,17.82
2019-04-22T14:09:30.513Z,18.71
2019-04-22T14:10:30.276Z,18.20
2019-04-22T14:11:40.497Z,17.11
2019-04-22T14:12:30.966Z,17.71
2019-04-22T14:13:30.134Z,19.09
2019-04-22T14:14:30.246Z,20.38
2019-04-22T14:15:29.943Z,18.40
2019-04-22T14:16:31.130Z,17.21
2019-04-22T14:17:31.398Z,18.30
2019-04-22T14:18:30.768Z,18.90
2019-04-22T14:19:29.961Z,17.02